»·PEaware :: N700DK KPDX-KBFI

N700DK :: KPDX-KBFI

FLIGHT INFORMATION

Flight Status: Arrived
Operator: Privately registered:
United States
More flights under this callsign
Pilot: Brendan O. (14500)
Aircraft: CESSNA 340
(C340)
More flights by this aircraft type
Origin: KPDX Portland Intl
United States
Destination: KBFI Boeing Field/King Co Intl
United States
More flights between these airports :: More routes between these airports
Route: +PTLD1 BTG V23 SEA
File this flight plan on PilotEdge
Remarks:
Altitude:
(Current/Filed)
10,000ft
Speed:
(Current/Filed)
185kts
Departed: 26-Feb-20 10:46 AM
Arrived: 26-Feb-20 11:49 AM
Distance/Time
Traveled:
117nm/1:03
Distance/Time
To Go:
Arrived

Flight Plot

Page will automatically refresh every two minutes.


Map Options




Map Legend


Flown Route
Filed Route
Departure Airport
Arrival Airport
Navaid (VOR, NDB)
Fix

Horizontal Profiles

Position Reports

Time Latitude Longitude Heading Altitude Ground
Speed
26-Feb-20 10:27 45.586654 -122.581888 297 20ft 0kts
26-Feb-20 10:28 45.586654 -122.581888 297 20ft 0kts
26-Feb-20 10:29 45.586654 -122.581888 297 20ft 0kts
26-Feb-20 10:30 45.586654 -122.581888 297 20ft 0kts
26-Feb-20 10:31 45.586654 -122.581888 297 20ft 0kts
26-Feb-20 10:32 45.586654 -122.581888 297 20ft 0kts
26-Feb-20 10:33 45.586654 -122.581888 297 20ft 0kts
26-Feb-20 10:34 45.586654 -122.581888 297 20ft 0kts
26-Feb-20 10:35 45.586654 -122.581888 297 20ft 0kts
26-Feb-20 10:36 45.586654 -122.581888 297 20ft 0kts
26-Feb-20 10:37 45.586654 -122.581888 297 20ft 0kts
26-Feb-20 10:39 45.586668 -122.581927 297 20ft 2kts
26-Feb-20 10:40 45.587082 -122.582135 27 20ft 0kts
26-Feb-20 10:41 45.587854 -122.582786 3 20ft 13kts
26-Feb-20 10:42 45.590629 -122.588216 297 20ft 20kts
26-Feb-20 10:43 45.593750 -122.596150 296 23ft 20kts
26-Feb-20 10:44 45.594546 -122.597529 51 23ft 0kts
26-Feb-20 10:45 45.594546 -122.597529 51 23ft 0kts
26-Feb-20 10:46 45.592431 -122.589624 116 20ft 93kts
26-Feb-20 10:47 45.581965 -122.549636 101 913ft 116kts
26-Feb-20 10:48 45.575646 -122.507689 111 2345ft 123kts
26-Feb-20 10:49 45.566355 -122.461463 99 2951ft 163kts
26-Feb-20 10:50 45.565968 -122.391411 64 3347ft 170kts
26-Feb-20 10:51 45.601579 -122.369882 332 4104ft 154kts
26-Feb-20 10:52 45.631318 -122.410171 316 4849ft 154kts
26-Feb-20 10:53 45.659053 -122.448867 316 5557ft 154kts
26-Feb-20 10:54 45.679593 -122.483467 310 6130ft 154kts
26-Feb-20 10:55 45.708274 -122.530089 313 6907ft 154kts
26-Feb-20 10:56 45.743874 -122.585519 318 7837ft 154kts
26-Feb-20 10:57 45.785239 -122.601256 346 8584ft 155kts
26-Feb-20 10:58 45.827689 -122.611592 345 9329ft 155kts
26-Feb-20 10:58 45.863417 -122.620499 345 9788ft 163kts
26-Feb-20 11:00 45.917194 -122.633859 345 9942ft 174kts
26-Feb-20 11:01 45.962019 -122.645066 345 9976ft 178kts
26-Feb-20 11:01 45.993499 -122.652941 345 9977ft 178kts
26-Feb-20 11:03 46.027185 -122.661376 345 9978ft 179kts
26-Feb-20 11:03 46.070759 -122.672299 345 9981ft 179kts
26-Feb-20 11:04 46.115226 -122.683543 344 9985ft 179kts
26-Feb-20 11:06 46.161562 -122.695278 345 9985ft 179kts
26-Feb-20 11:06 46.199236 -122.704774 345 9984ft 179kts
26-Feb-20 11:07 46.258463 -122.719725 345 9984ft 179kts
26-Feb-20 11:08 46.306947 -122.731969 345 9984ft 179kts
26-Feb-20 11:09 46.355007 -122.744132 345 9984ft 179kts
26-Feb-20 11:10 46.392199 -122.753593 345 9984ft 179kts
26-Feb-20 11:11 46.431560 -122.756914 14 9981ft 190kts
26-Feb-20 11:12 46.470677 -122.738917 10 9993ft 187kts
26-Feb-20 11:13 46.512645 -122.720398 10 9989ft 186kts
26-Feb-20 11:14 46.551126 -122.703109 10 9985ft 186kts
26-Feb-20 11:15 46.585665 -122.687470 11 9983ft 186kts
26-Feb-20 11:16 46.630267 -122.667188 11 9983ft 186kts
26-Feb-20 11:17 46.666698 -122.651025 10 9983ft 186kts
26-Feb-20 11:18 46.710191 -122.632108 10 9983ft 185kts
26-Feb-20 11:19 46.750568 -122.614442 10 9981ft 186kts
26-Feb-20 11:20 46.799216 -122.593123 9 9980ft 188kts
26-Feb-20 11:21 46.861376 -122.565783 9 9978ft 191kts
26-Feb-20 11:22 46.930728 -122.535183 9 9978ft 192kts
26-Feb-20 11:23 46.993299 -122.507511 9 9979ft 192kts
26-Feb-20 11:24 47.039600 -122.486972 8 9980ft 192kts
26-Feb-20 11:25 47.089706 -122.464368 8 9976ft 179kts
26-Feb-20 11:26 47.132871 -122.472074 319 9857ft 128kts
26-Feb-20 11:27 47.168602 -122.500130 319 8965ft 149kts
26-Feb-20 11:28 47.197105 -122.525485 355 8052ft 166kts
26-Feb-20 11:29 47.230930 -122.519593 1 7141ft 172kts
26-Feb-20 11:30 47.272599 -122.512786 1 5971ft 173kts
26-Feb-20 11:31 47.302996 -122.508755 1 5128ft 170kts
26-Feb-20 11:32 47.341335 -122.504860 1 4047ft 166kts
26-Feb-20 11:33 47.381245 -122.501996 0 3951ft 122kts
26-Feb-20 11:34 47.410339 -122.499819 1 3965ft 130kts
26-Feb-20 11:35 47.437455 -122.497711 1 3964ft 136kts
26-Feb-20 11:36 47.468117 -122.496920 348 3966ft 136kts
26-Feb-20 11:37 47.495133 -122.505657 346 3966ft 137kts
26-Feb-20 11:38 47.532652 -122.517986 346 3968ft 137kts
26-Feb-20 11:39 47.569242 -122.533162 336 3427ft 167kts
26-Feb-20 11:40 47.613962 -122.563772 334 2979ft 148kts
26-Feb-20 11:41 47.647532 -122.539964 66 2997ft 130kts
26-Feb-20 11:42 47.651601 -122.478948 126 2568ft 143kts
26-Feb-20 11:43 47.627217 -122.417899 119 1694ft 114kts
26-Feb-20 11:44 47.615921 -122.390791 117 1682ft 74kts
26-Feb-20 11:45 47.606294 -122.368458 133 1662ft 81kts
26-Feb-20 11:46 47.582406 -122.346945 150 1148ft 108kts
26-Feb-20 11:47 47.551486 -122.320451 151 311ft 88kts
26-Feb-20 11:48 47.530180 -122.302450 133 16ft 1kts
26-Feb-20 11:49 47.530511 -122.301633 67 17ft 0kts
26-Feb-20 11:50 47.530147 -122.298409 63 20ft 11kts

Navigation Log

Ident Type
Flight plan parsing failed, navigation log unavailable